sensor_id;sensor_type;location;lat;lon;timestamp;P1;P2;P0
77413;PMS7003;66486;49.992;19.164;2024-01-30T00:02:13;168.00;126.67;60.33
77413;PMS7003;66486;49.992;19.164;2024-01-30T00:04:39;182.00;144.67;65.33
77413;PMS7003;66486;49.992;19.164;2024-01-30T00:07:05;155.00;122.67;66.67
77413;PMS7003;66486;49.992;19.164;2024-01-30T00:09:31;160.33;134.33;70.00
77413;PMS7003;66486;49.992;19.164;2024-01-30T00:11:57;168.33;136.00;69.33
77413;PMS7003;66486;49.992;19.164;2024-01-30T00:14:24;169.67;138.67;66.00
77413;PMS7003;66486;49.992;19.164;2024-01-30T00:16:50;156.33;137.00;70.00
77413;PMS7003;66486;49.992;19.164;2024-01-30T00:19:17;168.00;142.00;74.67
77413;PMS7003;66486;49.992;19.164;2024-01-30T00:21:43;196.33;153.33;80.67
77413;PMS7003;66486;49.992;19.164;2024-01-30T00:24:09;175.00;148.67;74.33
77413;PMS7003;66486;49.992;19.164;2024-01-30T00:26:35;177.67;152.67;74.67
77413;PMS7003;66486;49.992;19.164;2024-01-30T00:29:02;175.00;148.00;75.67
77413;PMS7003;66486;49.992;19.164;2024-01-30T00:31:28;154.33;133.00;72.67
77413;PMS7003;66486;49.992;19.164;2024-01-30T00:33:54;157.33;133.67;66.33
77413;PMS7003;66486;49.992;19.164;2024-01-30T00:36:20;173.67;141.33;65.00
77413;PMS7003;66486;49.992;19.164;2024-01-30T00:38:46;112.67;96.00;62.00
77413;PMS7003;66486;49.992;19.164;2024-01-30T00:41:12;178.00;152.67;75.67
77413;PMS7003;66486;49.992;19.164;2024-01-30T00:43:38;156.00;133.00;73.00
77413;PMS7003;66486;49.992;19.164;2024-01-30T00:46:04;103.67;77.33;62.33
77413;PMS7003;66486;49.992;19.164;2024-01-30T00:48:30;158.00;133.67;62.33
77413;PMS7003;66486;49.992;19.164;2024-01-30T00:50:56;140.33;121.33;65.33
77413;PMS7003;66486;49.992;19.164;2024-01-30T00:53:22;171.00;145.67;66.00
77413;PMS7003;66486;49.992;19.164;2024-01-30T00:55:48;162.00;134.33;73.67
77413;PMS7003;66486;49.992;19.164;2024-01-30T00:58:14;151.67;124.33;63.33
77413;PMS7003;66486;49.992;19.164;2024-01-30T01:00:40;175.00;137.33;63.67
77413;PMS7003;66486;49.992;19.164;2024-01-30T01:03:06;179.00;137.67;66.67
77413;PMS7003;66486;49.992;19.164;2024-01-30T01:05:32;159.67;128.00;65.33
77413;PMS7003;66486;49.992;19.164;2024-01-30T01:07:58;194.67;165.00;76.67
77413;PMS7003;66486;49.992;19.164;2024-01-30T01:10:24;187.67;154.00;69.00
77413;PMS7003;66486;49.992;19.164;2024-01-30T01:12:50;140.00;130.67;65.67
77413;PMS7003;66486;49.992;19.164;2024-01-30T01:15:16;177.33;144.33;81.00
77413;PMS7003;66486;49.992;19.164;2024-01-30T01:17:42;177.67;140.00;71.67
77413;PMS7003;66486;49.992;19.164;2024-01-30T01:20:08;195.00;159.00;82.67
77413;PMS7003;66486;49.992;19.164;2024-01-30T01:22:36;163.67;138.33;66.00
77413;PMS7003;66486;49.992;19.164;2024-01-30T01:25:04;176.67;140.00;63.00
77413;PMS7003;66486;49.992;19.164;2024-01-30T01:27:34;187.33;156.33;80.67
77413;PMS7003;66486;49.992;19.164;2024-01-30T01:30:06;192.33;161.67;76.33
77413;PMS7003;66486;49.992;19.164;2024-01-30T01:32:37;210.00;175.00;87.33
77413;PMS7003;66486;49.992;19.164;2024-01-30T01:35:04;187.00;162.67;78.67
77413;PMS7003;66486;49.992;19.164;2024-01-30T01:37:31;208.67;161.00;84.33
77413;PMS7003;66486;49.992;19.164;2024-01-30T01:39:57;190.00;145.67;74.00
77413;PMS7003;66486;49.992;19.164;2024-01-30T01:42:23;195.67;156.67;75.00
77413;PMS7003;66486;49.992;19.164;2024-01-30T01:44:49;223.50;181.50;88.75
77413;PMS7003;66486;49.992;19.164;2024-01-30T01:47:15;214.75;168.50;84.25
77413;PMS7003;66486;49.992;19.164;2024-01-30T01:49:41;208.75;160.00;85.50
77413;PMS7003;66486;49.992;19.164;2024-01-30T01:52:08;222.00;175.67;85.67
77413;PMS7003;66486;49.992;19.164;2024-01-30T01:54:34;150.50;128.75;69.75
77413;PMS7003;66486;49.992;19.164;2024-01-30T01:57:01;203.00;163.00;80.25
77413;PMS7003;66486;49.992;19.164;2024-01-30T01:59:27;193.00;161.00;79.33
77413;PMS7003;66486;49.992;19.164;2024-01-30T02:01:54;200.67;166.33;83.33
77413;PMS7003;66486;49.992;19.164;2024-01-30T02:04:21;143.50;127.00;64.25
77413;PMS7003;66486;49.992;19.164;2024-01-30T02:06:47;189.75;152.50;70.75
77413;PMS7003;66486;49.992;19.164;2024-01-30T02:09:13;205.50;174.00;87.75
77413;PMS7003;66486;49.992;19.164;2024-01-30T02:11:39;184.75;154.25;82.00
77413;PMS7003;66486;49.992;19.164;2024-01-30T02:14:06;225.00;179.75;84.25
77413;PMS7003;66486;49.992;19.164;2024-01-30T02:16:32;183.75;157.00;78.00
77413;PMS7003;66486;49.992;19.164;2024-01-30T02:18:58;206.33;169.33;84.00
77413;PMS7003;66486;49.992;19.164;2024-01-30T02:21:24;211.00;162.00;80.67
77413;PMS7003;66486;49.992;19.164;2024-01-30T02:23:50;186.25;159.25;91.50
77413;PMS7003;66486;49.992;19.164;2024-01-30T02:26:20;186.67;156.33;73.67
77413;PMS7003;66486;49.992;19.164;2024-01-30T02:28:46;139.67;115.00;59.67
77413;PMS7003;66486;49.992;19.164;2024-01-30T02:31:13;193.33;158.33;80.67
77413;PMS7003;66486;49.992;19.164;2024-01-30T02:33:38;160.67;139.33;78.67
77413;PMS7003;66486;49.992;19.164;2024-01-30T02:36:05;205.75;176.00;90.00
77413;PMS7003;66486;49.992;19.164;2024-01-30T02:38:30;208.50;171.00;77.25
77413;PMS7003;66486;49.992;19.164;2024-01-30T02:40:57;184.75;168.00;77.50
77413;PMS7003;66486;49.992;19.164;2024-01-30T02:43:23;191.33;159.00;80.00
77413;PMS7003;66486;49.992;19.164;2024-01-30T02:45:49;193.67;160.33;79.00
77413;PMS7003;66486;49.992;19.164;2024-01-30T02:48:15;173.00;148.67;66.33
77413;PMS7003;66486;49.992;19.164;2024-01-30T02:50:41;188.67;164.67;76.33
77413;PMS7003;66486;49.992;19.164;2024-01-30T02:53:07;189.00;127.50;47.75
77413;PMS7003;66486;49.992;19.164;2024-01-30T02:55:33;198.00;167.00;88.33
77413;PMS7003;66486;49.992;19.164;2024-01-30T02:57:59;205.25;170.25;83.25
77413;PMS7003;66486;49.992;19.164;2024-01-30T03:00:25;177.67;150.00;73.67
77413;PMS7003;66486;49.992;19.164;2024-01-30T03:02:51;188.33;162.33;78.00
77413;PMS7003;66486;49.992;19.164;2024-01-30T03:05:17;144.67;117.33;51.33
77413;PMS7003;66486;49.992;19.164;2024-01-30T03:07:43;171.67;144.33;68.67
77413;PMS7003;66486;49.992;19.164;2024-01-30T03:10:10;194.33;154.67;74.00
77413;PMS7003;66486;49.992;19.164;2024-01-30T03:12:36;146.67;120.67;64.00
77413;PMS7003;66486;49.992;19.164;2024-01-30T03:15:02;149.33;116.67;43.00
77413;PMS7003;66486;49.992;19.164;2024-01-30T03:17:28;164.67;138.00;67.67
77413;PMS7003;66486;49.992;19.164;2024-01-30T03:19:54;175.67;147.33;70.67
77413;PMS7003;66486;49.992;19.164;2024-01-30T03:22:20;177.67;155.00;69.33
77413;PMS7003;66486;49.992;19.164;2024-01-30T03:24:46;179.67;141.67;68.67
77413;PMS7003;66486;49.992;19.164;2024-01-30T03:27:12;172.67;130.33;66.33
77413;PMS7003;66486;49.992;19.164;2024-01-30T03:29:38;154.33;125.33;67.00
77413;PMS7003;66486;49.992;19.164;2024-01-30T03:32:04;163.67;132.33;66.00
77413;PMS7003;66486;49.992;19.164;2024-01-30T03:34:30;179.67;152.33;76.33
77413;PMS7003;66486;49.992;19.164;2024-01-30T03:36:56;166.00;140.33;61.00
77413;PMS7003;66486;49.992;19.164;2024-01-30T03:39:22;184.67;146.67;68.67
77413;PMS7003;66486;49.992;19.164;2024-01-30T03:41:48;152.67;125.33;56.67
77413;PMS7003;66486;49.992;19.164;2024-01-30T03:44:15;181.00;154.67;73.67
77413;PMS7003;66486;49.992;19.164;2024-01-30T03:46:40;153.67;121.67;55.67
77413;PMS7003;66486;49.992;19.164;2024-01-30T03:49:07;174.67;135.00;59.33
77413;PMS7003;66486;49.992;19.164;2024-01-30T03:51:32;176.67;147.67;76.00
77413;PMS7003;66486;49.992;19.164;2024-01-30T03:53:59;165.00;130.67;66.67
77413;PMS7003;66486;49.992;19.164;2024-01-30T03:56:25;132.33;125.33;67.67
77413;PMS7003;66486;49.992;19.164;2024-01-30T03:58:51;183.33;148.00;73.00
77413;PMS7003;66486;49.992;19.164;2024-01-30T04:01:17;158.67;137.00;71.33
77413;PMS7003;66486;49.992;19.164;2024-01-30T04:03:44;166.33;131.67;64.33
77413;PMS7003;66486;49.992;19.164;2024-01-30T04:06:10;156.00;136.67;68.67
77413;PMS7003;66486;49.992;19.164;2024-01-30T04:08:36;172.67;139.33;67.33
77413;PMS7003;66486;49.992;19.164;2024-01-30T04:11:05;181.67;143.33;73.00
77413;PMS7003;66486;49.992;19.164;2024-01-30T04:13:32;142.67;120.67;65.33
77413;PMS7003;66486;49.992;19.164;2024-01-30T04:16:02;133.67;115.67;66.00
77413;PMS7003;66486;49.992;19.164;2024-01-30T04:18:29;161.67;140.67;72.00
77413;PMS7003;66486;49.992;19.164;2024-01-30T04:20:55;161.33;138.33;63.00
77413;PMS7003;66486;49.992;19.164;2024-01-30T04:23:21;154.67;139.67;76.33
77413;PMS7003;66486;49.992;19.164;2024-01-30T04:25:48;151.67;125.67;52.00
77413;PMS7003;66486;49.992;19.164;2024-01-30T04:28:14;168.67;133.33;74.67
77413;PMS7003;66486;49.992;19.164;2024-01-30T04:30:40;139.67;113.33;47.67
77413;PMS7003;66486;49.992;19.164;2024-01-30T04:33:06;151.00;122.67;59.33
77413;PMS7003;66486;49.992;19.164;2024-01-30T04:35:32;156.67;130.00;70.67
77413;PMS7003;66486;49.992;19.164;2024-01-30T04:37:59;175.67;143.67;69.67
77413;PMS7003;66486;49.992;19.164;2024-01-30T04:40:25;159.00;129.33;56.00
77413;PMS7003;66486;49.992;19.164;2024-01-30T04:42:51;159.00;124.33;53.00
77413;PMS7003;66486;49.992;19.164;2024-01-30T04:45:17;196.00;163.00;78.00
77413;PMS7003;66486;49.992;19.164;2024-01-30T04:47:44;174.00;146.00;65.67
77413;PMS7003;66486;49.992;19.164;2024-01-30T04:50:11;151.00;127.33;73.33
77413;PMS7003;66486;49.992;19.164;2024-01-30T04:52:38;188.00;150.67;80.67
77413;PMS7003;66486;49.992;19.164;2024-01-30T04:55:04;28.67;25.67;25.67
77413;PMS7003;66486;49.992;19.164;2024-01-30T04:57:31;169.67;136.33;67.00
77413;PMS7003;66486;49.992;19.164;2024-01-30T04:59:59;166.33;137.67;74.67
77413;PMS7003;66486;49.992;19.164;2024-01-30T05:02:25;145.00;113.00;55.67
77413;PMS7003;66486;49.992;19.164;2024-01-30T05:04:52;157.67;135.00;66.00
77413;PMS7003;66486;49.992;19.164;2024-01-30T05:07:19;170.67;142.33;76.67
77413;PMS7003;66486;49.992;19.164;2024-01-30T05:09:45;184.67;147.00;77.00
77413;PMS7003;66486;49.992;19.164;2024-01-30T05:12:11;157.67;135.67;70.67
77413;PMS7003;66486;49.992;19.164;2024-01-30T05:14:37;151.00;131.00;66.33
77413;PMS7003;66486;49.992;19.164;2024-01-30T05:17:07;157.00;126.00;68.67
77413;PMS7003;66486;49.992;19.164;2024-01-30T05:19:40;111.00;70.33;13.00
77413;PMS7003;66486;49.992;19.164;2024-01-30T05:22:10;154.67;141.33;67.33
77413;PMS7003;66486;49.992;19.164;2024-01-30T05:24:44;160.00;128.67;65.67
77413;PMS7003;66486;49.992;19.164;2024-01-30T05:27:11;158.67;132.67;63.33
77413;PMS7003;66486;49.992;19.164;2024-01-30T05:29:39;133.00;120.67;66.00
77413;PMS7003;66486;49.992;19.164;2024-01-30T05:32:07;179.67;137.00;64.33
77413;PMS7003;66486;49.992;19.164;2024-01-30T05:34:34;146.33;129.67;64.00
77413;PMS7003;66486;49.992;19.164;2024-01-30T05:37:02;91.33;62.67;43.67
77413;PMS7003;66486;49.992;19.164;2024-01-30T05:39:32;161.67;132.33;66.67
77413;PMS7003;66486;49.992;19.164;2024-01-30T05:41:59;153.33;126.00;61.00
77413;PMS7003;66486;49.992;19.164;2024-01-30T05:44:28;138.00;122.67;60.33
77413;PMS7003;66486;49.992;19.164;2024-01-30T05:46:54;115.67;85.67;31.33
77413;PMS7003;66486;49.992;19.164;2024-01-30T05:49:20;139.67;115.00;53.67
77413;PMS7003;66486;49.992;19.164;2024-01-30T05:51:47;146.67;123.33;60.67
77413;PMS7003;66486;49.992;19.164;2024-01-30T05:54:17;140.00;128.33;70.67
77413;PMS7003;66486;49.992;19.164;2024-01-30T05:56:44;148.67;133.00;71.00
77413;PMS7003;66486;49.992;19.164;2024-01-30T05:59:10;138.33;129.33;68.33
77413;PMS7003;66486;49.992;19.164;2024-01-30T06:01:37;151.67;127.00;62.00
77413;PMS7003;66486;49.992;19.164;2024-01-30T06:04:03;143.33;131.67;63.00
77413;PMS7003;66486;49.992;19.164;2024-01-30T06:06:30;122.67;110.00;51.00
77413;PMS7003;66486;49.992;19.164;2024-01-30T06:08:56;144.67;118.00;59.00
77413;PMS7003;66486;49.992;19.164;2024-01-30T06:11:27;125.67;109.67;59.33
77413;PMS7003;66486;49.992;19.164;2024-01-30T06:13:53;156.33;122.33;61.67
77413;PMS7003;66486;49.992;19.164;2024-01-30T06:16:19;112.67;94.33;53.67
77413;PMS7003;66486;49.992;19.164;2024-01-30T06:18:46;126.00;98.00;54.67
77413;PMS7003;66486;49.992;19.164;2024-01-30T06:21:13;132.00;112.67;60.00
77413;PMS7003;66486;49.992;19.164;2024-01-30T06:23:39;164.00;136.67;72.00
77413;PMS7003;66486;49.992;19.164;2024-01-30T06:26:07;134.67;105.00;53.33
77413;PMS7003;66486;49.992;19.164;2024-01-30T06:28:33;127.67;100.33;52.00
77413;PMS7003;66486;49.992;19.164;2024-01-30T06:31:00;139.00;111.00;61.00
77413;PMS7003;66486;49.992;19.164;2024-01-30T06:33:29;131.33;105.33;57.67
77413;PMS7003;66486;49.992;19.164;2024-01-30T06:35:56;118.00;103.00;56.33
77413;PMS7003;66486;49.992;19.164;2024-01-30T06:38:22;126.00;101.67;49.67
77413;PMS7003;66486;49.992;19.164;2024-01-30T06:40:50;116.33;105.33;52.33
77413;PMS7003;66486;49.992;19.164;2024-01-30T06:43:16;125.67;113.00;61.67
77413;PMS7003;66486;49.992;19.164;2024-01-30T06:45:43;121.67;100.67;57.67
77413;PMS7003;66486;49.992;19.164;2024-01-30T06:48:09;131.67;104.00;56.67
77413;PMS7003;66486;49.992;19.164;2024-01-30T06:50:35;119.33;97.67;50.33
77413;PMS7003;66486;49.992;19.164;2024-01-30T06:53:02;114.67;96.67;51.67
77413;PMS7003;66486;49.992;19.164;2024-01-30T06:55:28;117.67;91.00;50.33
77413;PMS7003;66486;49.992;19.164;2024-01-30T06:57:54;124.33;108.67;53.33
77413;PMS7003;66486;49.992;19.164;2024-01-30T07:00:21;127.67;108.67;53.00
77413;PMS7003;66486;49.992;19.164;2024-01-30T07:02:50;116.33;105.33;57.00
77413;PMS7003;66486;49.992;19.164;2024-01-30T07:05:17;114.33;95.67;48.00
77413;PMS7003;66486;49.992;19.164;2024-01-30T07:07:43;108.67;91.00;51.00
77413;PMS7003;66486;49.992;19.164;2024-01-30T07:10:10;132.67;111.33;55.33
77413;PMS7003;66486;49.992;19.164;2024-01-30T07:12:36;122.00;108.33;57.33
77413;PMS7003;66486;49.992;19.164;2024-01-30T07:15:02;130.67;116.67;61.00
77413;PMS7003;66486;49.992;19.164;2024-01-30T07:17:29;123.33;107.67;54.00
77413;PMS7003;66486;49.992;19.164;2024-01-30T07:19:56;131.33;112.67;58.00
77413;PMS7003;66486;49.992;19.164;2024-01-30T07:22:25;117.67;105.67;61.67
77413;PMS7003;66486;49.992;19.164;2024-01-30T07:24:51;139.00;110.67;55.33
77413;PMS7003;66486;49.992;19.164;2024-01-30T07:27:17;138.67;120.00;57.33
77413;PMS7003;66486;49.992;19.164;2024-01-30T07:29:44;145.67;114.67;60.00
77413;PMS7003;66486;49.992;19.164;2024-01-30T07:32:13;158.00;122.00;67.00
77413;PMS7003;66486;49.992;19.164;2024-01-30T07:34:42;146.67;116.33;55.33
77413;PMS7003;66486;49.992;19.164;2024-01-30T07:37:08;145.33;127.33;62.33
77413;PMS7003;66486;49.992;19.164;2024-01-30T07:39:46;151.00;124.67;69.33
77413;PMS7003;66486;49.992;19.164;2024-01-30T07:42:12;148.00;123.33;51.67
77413;PMS7003;66486;49.992;19.164;2024-01-30T07:44:39;183.67;145.00;75.67
77413;PMS7003;66486;49.992;19.164;2024-01-30T07:47:08;144.67;121.00;57.67
77413;PMS7003;66486;49.992;19.164;2024-01-30T07:49:35;141.67;130.00;72.33
77413;PMS7003;66486;49.992;19.164;2024-01-30T07:52:01;191.67;161.67;73.33
77413;PMS7003;66486;49.992;19.164;2024-01-30T07:54:28;196.00;160.67;78.67
77413;PMS7003;66486;49.992;19.164;2024-01-30T07:56:54;198.67;158.67;74.67
77413;PMS7003;66486;49.992;19.164;2024-01-30T07:59:21;186.00;145.00;78.67
77413;PMS7003;66486;49.992;19.164;2024-01-30T08:01:50;174.00;149.33;70.67
77413;PMS7003;66486;49.992;19.164;2024-01-30T08:04:19;176.33;136.67;57.67
77413;PMS7003;66486;49.992;19.164;2024-01-30T08:06:45;187.67;150.67;77.00
77413;PMS7003;66486;49.992;19.164;2024-01-30T08:09:12;181.33;155.33;72.67
77413;PMS7003;66486;49.992;19.164;2024-01-30T08:11:38;178.33;150.33;69.67
77413;PMS7003;66486;49.992;19.164;2024-01-30T08:14:04;168.00;157.33;86.33
77413;PMS7003;66486;49.992;19.164;2024-01-30T08:16:30;173.67;141.67;69.00
77413;PMS7003;66486;49.992;19.164;2024-01-30T08:18:57;186.67;153.67;82.00
77413;PMS7003;66486;49.992;19.164;2024-01-30T08:21:27;170.67;137.33;71.33
77413;PMS7003;66486;49.992;19.164;2024-01-30T08:23:53;183.00;156.00;79.67
77413;PMS7003;66486;49.992;19.164;2024-01-30T08:26:19;174.00;126.67;63.67
77413;PMS7003;66486;49.992;19.164;2024-01-30T08:28:45;179.00;138.67;71.33
77413;PMS7003;66486;49.992;19.164;2024-01-30T08:31:12;168.00;141.67;63.33
77413;PMS7003;66486;49.992;19.164;2024-01-30T08:33:38;168.67;141.33;71.67
77413;PMS7003;66486;49.992;19.164;2024-01-30T08:36:05;153.67;126.67;75.67
77413;PMS7003;66486;49.992;19.164;2024-01-30T08:38:31;177.67;149.67;66.67
77413;PMS7003;66486;49.992;19.164;2024-01-30T08:40:58;140.00;123.00;65.33
77413;PMS7003;66486;49.992;19.164;2024-01-30T08:43:24;138.67;123.00;73.67
77413;PMS7003;66486;49.992;19.164;2024-01-30T08:45:53;143.33;127.00;58.67
77413;PMS7003;66486;49.992;19.164;2024-01-30T08:48:19;147.75;127.00;64.75
77413;PMS7003;66486;49.992;19.164;2024-01-30T08:50:47;186.00;136.33;73.67
77413;PMS7003;66486;49.992;19.164;2024-01-30T08:53:13;186.25;149.25;75.50
77413;PMS7003;66486;49.992;19.164;2024-01-30T08:55:39;153.75;128.50;66.75
77413;PMS7003;66486;49.992;19.164;2024-01-30T08:58:05;133.75;111.00;50.50
77413;PMS7003;66486;49.992;19.164;2024-01-30T09:00:32;86.50;65.50;34.00
77413;PMS7003;66486;49.992;19.164;2024-01-30T09:02:58;75.75;55.50;35.50
77413;PMS7003;66486;49.992;19.164;2024-01-30T09:05:26;75.75;59.25;33.25
77413;PMS7003;66486;49.992;19.164;2024-01-30T09:07:52;83.50;63.00;34.50
77413;PMS7003;66486;49.992;19.164;2024-01-30T09:10:27;139.00;123.50;64.75
77413;PMS7003;66486;49.992;19.164;2024-01-30T09:12:53;146.50;121.00;63.00
77413;PMS7003;66486;49.992;19.164;2024-01-30T09:15:20;153.00;128.50;62.75
77413;PMS7003;66486;49.992;19.164;2024-01-30T09:17:46;193.25;147.25;68.50
77413;PMS7003;66486;49.992;19.164;2024-01-30T09:20:12;145.75;122.00;61.25
77413;PMS7003;66486;49.992;19.164;2024-01-30T09:22:38;102.00;79.00;45.25
77413;PMS7003;66486;49.992;19.164;2024-01-30T09:25:05;99.50;75.25;42.75
77413;PMS7003;66486;49.992;19.164;2024-01-30T09:27:31;97.25;71.00;42.25
77413;PMS7003;66486;49.992;19.164;2024-01-30T09:29:58;97.00;73.25;42.75
77413;PMS7003;66486;49.992;19.164;2024-01-30T09:32:24;92.50;69.50;41.00
77413;PMS7003;66486;49.992;19.164;2024-01-30T09:34:51;93.50;73.00;45.00
77413;PMS7003;66486;49.992;19.164;2024-01-30T09:37:17;87.50;68.25;37.75
77413;PMS7003;66486;49.992;19.164;2024-01-30T09:39:44;85.00;68.00;39.00
77413;PMS7003;66486;49.992;19.164;2024-01-30T09:44:55;70.00;57.33;32.33
77413;PMS7003;66486;49.992;19.164;2024-01-30T09:47:22;73.67;60.33;33.67
77413;PMS7003;66486;49.992;19.164;2024-01-30T09:49:48;22.25;18.50;0.00
77413;PMS7003;66486;49.992;19.164;2024-01-30T09:52:16;77.25;58.25;34.00
77413;PMS7003;66486;49.992;19.164;2024-01-30T09:54:44;54.67;49.33;25.67
77413;PMS7003;66486;49.992;19.164;2024-01-30T09:57:17;72.25;58.75;34.50
77413;PMS7003;66486;49.992;19.164;2024-01-30T09:59:47;73.00;58.50;33.25
77413;PMS7003;66486;49.992;19.164;2024-01-30T10:02:14;67.50;56.75;32.50
77413;PMS7003;66486;49.992;19.164;2024-01-30T10:04:41;77.00;57.75;34.25
77413;PMS7003;66486;49.992;19.164;2024-01-30T10:07:07;62.75;53.50;36.25
77413;PMS7003;66486;49.992;19.164;2024-01-30T10:09:38;78.50;62.75;35.75
77413;PMS7003;66486;49.992;19.164;2024-01-30T10:12:04;72.50;56.50;34.00
77413;PMS7003;66486;49.992;19.164;2024-01-30T10:14:37;81.50;65.25;38.50
77413;PMS7003;66486;49.992;19.164;2024-01-30T10:17:07;87.25;66.00;40.00
77413;PMS7003;66486;49.992;19.164;2024-01-30T10:19:38;80.25;61.50;35.50
77413;PMS7003;66486;49.992;19.164;2024-01-30T10:22:05;80.75;63.75;37.25
77413;PMS7003;66486;49.992;19.164;2024-01-30T10:24:35;86.75;68.00;39.00
77413;PMS7003;66486;49.992;19.164;2024-01-30T10:27:02;88.50;70.00;42.00
77413;PMS7003;66486;49.992;19.164;2024-01-30T10:29:31;84.50;67.00;38.00
77413;PMS7003;66486;49.992;19.164;2024-01-30T10:31:58;86.25;68.50;40.00
77413;PMS7003;66486;49.992;19.164;2024-01-30T10:34:26;78.75;65.50;37.50
77413;PMS7003;66486;49.992;19.164;2024-01-30T10:37:06;78.25;61.25;39.25
77413;PMS7003;66486;49.992;19.164;2024-01-30T10:39:39;85.25;66.25;39.25
77413;PMS7003;66486;49.992;19.164;2024-01-30T10:42:12;81.25;62.50;36.75
77413;PMS7003;66486;49.992;19.164;2024-01-30T10:47:27;76.00;61.00;34.00
77413;PMS7003;66486;49.992;19.164;2024-01-30T10:49:55;88.50;69.25;40.50
77413;PMS7003;66486;49.992;19.164;2024-01-30T10:52:25;81.75;63.00;40.25
77413;PMS7003;66486;49.992;19.164;2024-01-30T10:54:55;70.00;59.00;34.50
77413;PMS7003;66486;49.992;19.164;2024-01-30T10:57:31;80.00;64.75;39.00
77413;PMS7003;66486;49.992;19.164;2024-01-30T11:00:00;82.75;63.00;37.25
77413;PMS7003;66486;49.992;19.164;2024-01-30T11:02:42;77.25;65.00;38.50
77413;PMS7003;66486;49.992;19.164;2024-01-30T11:05:11;76.00;62.00;33.00
77413;PMS7003;66486;49.992;19.164;2024-01-30T11:07:49;74.75;61.25;37.00
77413;PMS7003;66486;49.992;19.164;2024-01-30T11:10:15;87.25;66.50;39.25
77413;PMS7003;66486;49.992;19.164;2024-01-30T11:12:41;79.00;63.50;38.00
77413;PMS7003;66486;49.992;19.164;2024-01-30T11:20:19;76.00;62.00;36.00
77413;PMS7003;66486;49.992;19.164;2024-01-30T11:22:53;81.75;64.00;37.50
77413;PMS7003;66486;49.992;19.164;2024-01-30T11:25:23;71.50;59.00;34.00
77413;PMS7003;66486;49.992;19.164;2024-01-30T11:27:54;76.00;60.75;37.75
77413;PMS7003;66486;49.992;19.164;2024-01-30T11:30:27;67.80;54.80;33.00
77413;PMS7003;66486;49.992;19.164;2024-01-30T11:33:02;53.60;45.00;26.20
77413;PMS7003;66486;49.992;19.164;2024-01-30T11:35:35;58.20;50.20;30.00
77413;PMS7003;66486;49.992;19.164;2024-01-30T11:38:06;53.25;48.50;30.50
77413;PMS7003;66486;49.992;19.164;2024-01-30T11:40:34;65.40;54.40;30.20
77413;PMS7003;66486;49.992;19.164;2024-01-30T11:43:01;49.80;45.20;30.00
77413;PMS7003;66486;49.992;19.164;2024-01-30T11:45:30;68.00;56.00;32.60
77413;PMS7003;66486;49.992;19.164;2024-01-30T11:47:57;58.20;51.00;31.20
77413;PMS7003;66486;49.992;19.164;2024-01-30T11:50:29;69.00;57.40;32.60
77413;PMS7003;66486;49.992;19.164;2024-01-30T11:52:56;60.60;50.20;31.40
77413;PMS7003;66486;49.992;19.164;2024-01-30T11:55:28;61.60;50.00;30.60
77413;PMS7003;66486;49.992;19.164;2024-01-30T11:57:55;50.80;46.40;29.60
77413;PMS7003;66486;49.992;19.164;2024-01-30T12:00:22;57.60;48.00;25.40
77413;PMS7003;66486;49.992;19.164;2024-01-30T12:02:49;36.20;32.00;18.40
77413;PMS7003;66486;49.992;19.164;2024-01-30T12:05:22;30.40;27.60;18.60
77413;PMS7003;66486;49.992;19.164;2024-01-30T12:07:51;27.80;27.80;17.60
77413;PMS7003;66486;49.992;19.164;2024-01-30T12:10:18;21.60;21.20;13.00
77413;PMS7003;66486;49.992;19.164;2024-01-30T12:12:46;18.80;17.60;12.40
77413;PMS7003;66486;49.992;19.164;2024-01-30T12:15:21;23.80;23.20;15.60
77413;PMS7003;66486;49.992;19.164;2024-01-30T12:18:03;20.20;19.40;15.00
77413;PMS7003;66486;49.992;19.164;2024-01-30T12:20:32;19.40;18.60;13.00
77413;PMS7003;66486;49.992;19.164;2024-01-30T12:22:58;27.20;25.20;13.40
77413;PMS7003;66486;49.992;19.164;2024-01-30T12:25:31;21.20;20.20;11.60
77413;PMS7003;66486;49.992;19.164;2024-01-30T12:27:58;19.80;19.80;13.00
77413;PMS7003;66486;49.992;19.164;2024-01-30T12:30:27;27.20;25.00;14.40
77413;PMS7003;66486;49.992;19.164;2024-01-30T12:32:54;24.20;22.40;15.40
77413;PMS7003;66486;49.992;19.164;2024-01-30T12:35:20;25.40;24.00;15.40
77413;PMS7003;66486;49.992;19.164;2024-01-30T12:37:47;22.80;21.60;14.20
77413;PMS7003;66486;49.992;19.164;2024-01-30T12:40:15;21.60;19.80;11.20
77413;PMS7003;66486;49.992;19.164;2024-01-30T12:42:42;22.60;21.60;13.80
77413;PMS7003;66486;49.992;19.164;2024-01-30T12:45:13;19.40;19.40;12.00
77413;PMS7003;66486;49.992;19.164;2024-01-30T12:47:43;23.60;20.20;14.00
77413;PMS7003;66486;49.992;19.164;2024-01-30T12:50:10;18.80;18.80;12.80
77413;PMS7003;66486;49.992;19.164;2024-01-30T12:52:41;12.80;12.20;10.80
77413;PMS7003;66486;49.992;19.164;2024-01-30T12:55:09;20.60;19.40;13.00
77413;PMS7003;66486;49.992;19.164;2024-01-30T12:57:35;24.20;23.60;16.00
77413;PMS7003;66486;49.992;19.164;2024-01-30T13:00:01;19.80;18.80;13.80
77413;PMS7003;66486;49.992;19.164;2024-01-30T13:02:28;23.40;22.60;12.80
77413;PMS7003;66486;49.992;19.164;2024-01-30T13:05:02;20.40;19.00;10.80
77413;PMS7003;66486;49.992;19.164;2024-01-30T13:07:29;21.20;17.40;11.20
77413;PMS7003;66486;49.992;19.164;2024-01-30T13:09:56;15.60;15.60;9.80
77413;PMS7003;66486;49.992;19.164;2024-01-30T13:12:31;23.60;22.00;12.80
77413;PMS7003;66486;49.992;19.164;2024-01-30T13:14:59;16.00;15.60;9.00
77413;PMS7003;66486;49.992;19.164;2024-01-30T13:17:27;22.20;22.20;14.60
77413;PMS7003;66486;49.992;19.164;2024-01-30T13:19:57;26.60;22.80;13.00
77413;PMS7003;66486;49.992;19.164;2024-01-30T13:22:23;25.60;24.60;12.40
77413;PMS7003;66486;49.992;19.164;2024-01-30T13:24:50;19.60;18.40;9.80
77413;PMS7003;66486;49.992;19.164;2024-01-30T13:27:17;15.00;13.40;9.80
77413;PMS7003;66486;49.992;19.164;2024-01-30T13:29:43;22.60;21.20;14.20
77413;PMS7003;66486;49.992;19.164;2024-01-30T13:32:10;19.00;19.00;12.40